Kotoka International Airport

DGAA · Greater Accra, Ghana

2 ottobre 2022

Tempo Codice Tempo metereologico Temp. Vista Base nuvolosa Vento METAR/SPECI
12:00
M
28 °C 10 km+ 1.600 ft 170° 170° 6 kt METAR DGAA 021200Z 17006KT 120V210 9999 BKN016 28/24 Q1015 NOSIG
11:00
M
27 °C 10 km+ 1.500 ft 200° 200° 6 kt METAR DGAA 021100Z 20006KT 160V230 9999 BKN015 27/23 Q1016 NOSIG
10:00
M
26 °C 10 km+ 1.500 ft 220° 220° 6 kt METAR DGAA 021000Z 22006KT 170V260 9999 FEW010 BKN015 26/24 Q1016 NOSIG

1 ottobre 2022

Tempo Codice Tempo metereologico Temp. Vista Base nuvolosa Vento METAR/SPECI
10:00
I
24 °C 8 km 800 ft 180° 180° 7 kt METAR DGAA 011000Z 18007KT 8000 TSDZ BKN008 FEW028CB 24/24 Q1015 NOSIG
09:00
I
24 °C 5 km 800 ft 240° 240° 7 kt METAR DGAA 010900Z 24007KT 5000 RA BKN008 24/24 Q1014 TEMPO 5000 RA
08:00
L
24 °C 1 km 800 ft 240° 240° 10 kt METAR DGAA 010800Z 24010KT 1000 RA BKN008 24/24 Q1014 TEMPO 5000 RA
06:00
M
25 °C 8 km 1.000 ft 210° 210° 6 kt METAR DGAA 010600Z 21006KT 8000 RA BKN010 25/24 Q1012 TEMPO 5000 RA
05:00
M
25 °C 8 km 1.000 ft 230° 230° 8 kt METAR DGAA 010500Z 23008KT 8000 BKN010 25/24 Q1011 NOSIG
04:00
M
25 °C 8 km 1.000 ft 230° 230° 7 kt METAR DGAA 010400Z 23007KT 8000 DZ BKN010 25/24 Q1011 TEMPO 5000 - DZ
03:00
M
25 °C 8 km 1.000 ft 230° 230° 8 kt METAR DGAA 010300Z 23008KT 8000 BKN010 25/24 Q1011 NOSIG
02:00
M
25 °C 10 km+ 1.000 ft 220° 220° 10 kt METAR DGAA 010200Z 22010KT 9999 BKN010 25/24 Q1011 NOSIG
00:00
M
25 °C 10 km+ 1.000 ft 210° 210° 13 kt METAR DGAA 010000Z 21013KT 9999 BKN010 25/24 Q1011 NOSIG

30 settembre 2022

Tempo Codice Tempo metereologico Temp. Vista Base nuvolosa Vento METAR/SPECI
23:00
M
25 °C 10 km+ 1.000 ft 200° 200° 14 kt METAR DGAA 302300Z 20014KT 9999 BKN010 25/23 Q1011 NOSIG
22:00
M
25 °C 10 km+ 1.000 ft 210° 210° 11 kt METAR DGAA 302200Z 21011KT 9999 BKN010 25/23 Q1011 NOSIG
21:00
M
25 °C 10 km+ 1.000 ft 230° 230° 12 kt METAR DGAA 302100Z 23012KT 9999 BKN010 25/23 Q1011 NOSIG
20:00
M
24 °C 10 km+ 1.000 ft 250° 250° 5 kt METAR DGAA 302000Z 25005KT 220V290 9999 BKN010 24/22 Q1011 NOSIG
18:00
M
26 °C 10 km+ 1.000 ft 200° 200° 13 kt METAR DGAA 301800Z 20013KT 9999 BKN010 FEW030CB 26/23 Q1010 NOSIG
17:00
V
26 °C 10 km+ - 210° 210° 15 kt METAR DGAA 301700Z 21015KT 9999 FEW030CB 26/23 Q1010 NOSIG
16:00
V
27 °C 10 km+ - 210° 210° 16 kt METAR DGAA 301600Z 21016KT 9999 FEW030CB 27/22 Q1009 NOSIG
15:00
V
27 °C 10 km+ - 200° 200° 17 kt METAR DGAA 301500Z 20017KT 9999 SCT016 FEW030CB 27/23 Q1009 NOSIG
14:00
V
28 °C 10 km+ - 200° 200° 15 kt METAR DGAA 301400Z 20015KT 9999 SCT016 28/23 Q1011 NOSIG
Dati più vecchi

Noi e le terze parti seguiamo il tuo comportamento in internet sul nostro sito web con i cookie. Se continui, riteniamo che tu sia d'accordo con la nostra politica sui cookie. Per saperne di più